Time;durP1;ratioP1;P1;durP2;ratioP2;P2;SDS_P1;SDS_P2;PMS_P1;PMS_P2;Temp;Humidity;BMP_temperature;BMP_pressure;BME280_temperature;BME280_humidity;BME280_pressure;Samples;Min_cycle;Max_cycle;Signal;HPM_P1;HPM_P2
2022/12/03 00:04:55;;;;;;;34.42;25.08;;;;;;;-1.83;100.00;98917.06;15282250;19;20025;-54
2022/12/03 00:10:20;;;;;;;32.80;24.63;;;;;;;-1.84;100.00;98904.78;15280721;19;20015;-57
2022/12/03 00:15:47;;;;;;;34.13;25.52;;;;;;;-1.83;100.00;98914.41;15284267;19;20018;-56
2022/12/03 00:21:13;;;;;;;31.60;24.55;;;;;;;-1.83;100.00;98907.34;15286876;19;20032;-55
2022/12/03 00:26:38;;;;;;;32.58;24.45;;;;;;;-1.84;100.00;98905.63;15284671;19;20022;-57
2022/12/03 00:32:05;;;;;;;37.17;26.33;;;;;;;-1.86;100.00;98895.13;15283527;19;20014;-54
2022/12/03 00:37:30;;;;;;;36.22;25.80;;;;;;;-1.84;100.00;98902.97;15280350;19;20038;-58
2022/12/03 00:42:54;;;;;;;37.22;27.60;;;;;;;-1.84;100.00;98904.78;15282891;19;20010;-57
2022/12/03 00:48:21;;;;;;;38.92;27.20;;;;;;;-1.84;100.00;98908.25;15285152;19;20070;-56
2022/12/03 00:53:46;;;;;;;37.65;27.55;;;;;;;-1.86;100.00;98900.41;15284757;19;20019;-57
2022/12/03 00:59:11;;;;;;;40.33;27.98;;;;;;;-1.85;100.00;98903.91;15284741;19;20018;-56
2022/12/03 01:04:38;;;;;;;38.05;28.00;;;;;;;-1.85;100.00;98906.53;15290128;19;20021;-58
2022/12/03 01:10:03;;;;;;;38.78;28.27;;;;;;;-1.84;100.00;98896.84;15303922;19;20031;-59
2022/12/03 01:15:27;;;;;;;36.17;26.90;;;;;;;-1.84;100.00;98904.78;15280876;19;20025;-59
2022/12/03 01:20:54;;;;;;;38.28;28.25;;;;;;;-1.83;100.00;98909.13;15277313;19;20018;-60
2022/12/03 01:26:19;;;;;;;38.30;27.20;;;;;;;-1.84;100.00;98910.91;15282119;19;20021;-56
2022/12/03 01:37:24;;;;;;;36.70;27.60;;;;;;;-1.82;100.00;98908.22;15276079;19;20014;-56
2022/12/03 01:42:49;;;;;;;38.88;28.30;;;;;;;-1.81;100.00;98909.91;15280921;19;20042;-58
2022/12/03 01:48:15;;;;;;;35.55;26.90;;;;;;;-1.83;100.00;98898.56;15278693;19;20014;-58
2022/12/03 01:53:43;;;;;;;38.83;27.63;;;;;;;-1.83;100.00;98899.41;15280914;19;20010;-57
2022/12/03 01:59:07;;;;;;;36.63;26.92;;;;;;;-1.83;100.00;98888.00;15276889;19;20022;-58
2022/12/03 02:04:32;;;;;;;36.38;26.83;;;;;;;-1.83;100.00;98896.78;15279882;19;20011;-56
2022/12/03 02:09:59;;;;;;;39.35;28.27;;;;;;;-1.83;100.00;98893.28;15276066;19;20013;-55
2022/12/03 02:15:24;;;;;;;38.75;27.73;;;;;;;-1.83;100.00;98904.69;15276864;19;20018;-57
2022/12/03 02:20:54;;;;;;;37.00;26.80;;;;;;;-1.85;100.00;98901.25;15275622;19;20486;-59
2022/12/03 02:26:22;;;;;;;39.97;28.23;;;;;;;-1.82;100.00;98905.56;15278798;19;20013;-55
2022/12/03 02:31:46;;;;;;;42.40;28.60;;;;;;;-1.84;100.00;98902.13;15279438;19;20081;-56
2022/12/03 02:37:14;;;;;;;41.40;28.45;;;;;;;-1.84;100.00;98902.13;15275731;19;20028;-56
2022/12/03 02:42:41;;;;;;;37.88;27.08;;;;;;;-1.86;100.00;98902.19;15277931;19;20014;-56
2022/12/03 02:48:10;;;;;;;41.80;28.70;;;;;;;-1.88;100.00;98902.28;15276599;19;20032;-59
2022/12/03 02:53:41;;;;;;;42.92;29.10;;;;;;;-1.88;100.00;98902.28;15273035;19;20078;-58
2022/12/03 02:59:08;;;;;;;44.08;29.10;;;;;;;-1.89;100.00;98900.56;15273515;19;20025;-57
2022/12/03 03:04:33;;;;;;;42.17;28.70;;;;;;;-1.89;100.00;98899.72;15276004;19;20014;-58
2022/12/03 03:09:58;;;;;;;37.63;26.83;;;;;;;-1.90;100.00;98898.84;15273564;19;20035;-59
2022/12/03 03:15:25;;;;;;;41.42;28.42;;;;;;;-1.93;100.00;98901.63;15274489;19;20015;-56
2022/12/03 03:20:51;;;;;;;43.13;28.30;;;;;;;-1.93;100.00;98908.69;15272494;19;20018;-59
2022/12/03 03:26:18;;;;;;;43.45;28.92;;;;;;;-1.94;100.00;98896.41;15273720;19;20495;-59
2022/12/03 03:31:47;;;;;;;44.58;30.20;;;;;;;-1.95;100.00;98898.22;15276231;19;20423;-59
2022/12/03 03:37:12;;;;;;;48.35;29.80;;;;;;;-1.98;100.00;98897.47;15271266;19;20341;-56
2022/12/03 03:42:38;;;;;;;45.17;30.60;;;;;;;-1.99;100.00;98888.72;15273901;19;20020;-58
2022/12/03 03:48:06;;;;;;;44.13;29.17;;;;;;;-2.00;100.00;98892.28;15272459;19;20011;-56
2022/12/03 03:53:32;;;;;;;41.75;28.63;;;;;;;-1.97;100.00;98892.13;15273028;19;20021;-56
2022/12/03 03:58:56;;;;;;;40.95;27.92;;;;;;;-1.98;100.00;98894.81;15269741;19;20558;-57
2022/12/03 04:04:32;;;;;;;44.80;29.63;;;;;;;-2.00;100.00;98892.28;15279085;19;20078;-58
2022/12/03 04:09:57;;;;;;;43.75;29.08;;;;;;;-2.00;100.00;98899.34;15283486;19;20078;-58
2022/12/03 04:15:21;;;;;;;42.47;29.08;;;;;;;-2.02;100.00;98892.34;15284197;19;20025;-59
2022/12/03 04:20:49;;;;;;;45.08;30.25;;;;;;;-2.00;100.00;98894.91;15281021;19;20018;-58
2022/12/03 04:37:32;;;;;;;43.05;29.30;;;;;;;-2.03;100.00;98884.47;15276621;19;20367;-59
2022/12/03 04:42:57;;;;;;;41.90;28.95;;;;;;;-2.04;100.00;98888.91;15271255;19;20085;-59
2022/12/03 04:48:21;;;;;;;44.22;29.20;;;;;;;-2.04;100.00;98891.56;15279890;19;20711;-58
2022/12/03 04:53:51;;;;;;;42.70;28.92;;;;;;;-2.03;100.00;98881.84;15273961;19;20024;-58
2022/12/03 04:59:16;;;;;;;44.92;29.67;;;;;;;-2.03;100.00;98889.75;15272663;19;20011;-57
2022/12/03 05:04:41;;;;;;;49.58;30.90;;;;;;;-2.04;100.00;98886.28;15276372;19;20411;-59
2022/12/03 05:10:08;;;;;;;45.65;30.17;;;;;;;-2.02;100.00;98891.47;15275945;19;20019;-57
2022/12/03 05:15:33;;;;;;;50.10;31.52;;;;;;;-2.04;100.00;98888.06;15275701;19;20041;-55
2022/12/03 05:20:57;;;;;;;50.53;31.52;;;;;;;-2.06;100.00;98882.00;15274917;19;20046;-56
2022/12/03 05:26:25;;;;;;;53.15;33.28;;;;;;;-2.05;100.00;98881.94;15276689;19;20018;-57
2022/12/03 05:31:49;;;;;;;54.42;33.80;;;;;;;-2.06;100.00;98884.66;15281476;19;20037;-56
2022/12/03 05:37:14;;;;;;;53.60;33.30;;;;;;;-2.06;100.00;98877.56;15275002;19;20025;-57
2022/12/03 05:48:19;;;;;;;55.05;33.30;;;;;;;-2.06;100.00;98879.38;15280897;19;20018;-58
2022/12/03 05:53:43;;;;;;;55.92;34.03;;;;;;;-2.07;100.00;98881.13;15273102;19;20018;-58
2022/12/03 05:59:11;;;;;;;53.20;32.40;;;;;;;-2.06;100.00;98868.81;15271740;19;20014;-57
2022/12/03 06:04:42;;;;;;;52.85;32.80;;;;;;;-2.06;100.00;98871.44;15272621;19;20018;-57
2022/12/03 06:10:10;;;;;;;50.35;32.03;;;;;;;-2.05;100.00;98874.00;15275137;19;20018;-56
2022/12/03 06:15:37;;;;;;;49.00;31.17;;;;;;;-2.04;100.00;98874.84;15268285;19;20375;-57
2022/12/03 06:21:02;;;;;;;52.22;32.72;;;;;;;-2.05;100.00;98871.38;15272640;19;20026;-57
2022/12/03 06:26:26;;;;;;;50.72;31.38;;;;;;;-2.04;100.00;98877.50;15272200;19;20011;-55
2022/12/03 06:31:53;;;;;;;48.13;30.50;;;;;;;-2.03;100.00;98884.47;15278666;19;20025;-58
2022/12/03 06:37:18;;;;;;;46.45;29.75;;;;;;;-2.04;100.00;98886.28;15273027;19;20019;-57
2022/12/03 06:42:43;;;;;;;40.13;28.33;;;;;;;-2.03;100.00;98892.41;15272991;19;20022;-58
2022/12/03 06:48:10;;;;;;;43.35;29.88;;;;;;;-2.02;100.00;98886.19;15274601;19;20022;-59
2022/12/03 06:53:35;;;;;;;44.53;28.27;;;;;;;-2.02;100.00;98880.91;15271047;19;20026;-57
2022/12/03 06:58:59;;;;;;;43.67;29.25;;;;;;;-2.03;100.00;98885.34;15266846;19;20026;-56
2022/12/03 07:04:33;;;;;;;40.55;27.80;;;;;;;-1.99;100.00;98893.13;15259650;19;20090;-59
2022/12/03 07:10:03;;;;;;;36.80;25.98;;;;;;;-1.96;100.00;98888.56;15270160;19;20042;-57
2022/12/03 07:15:27;;;;;;;39.67;26.35;;;;;;;-1.95;100.00;98886.78;15266884;19;20655;-60
2022/12/03 07:20:55;;;;;;;36.17;25.40;;;;;;;-1.97;100.00;98875.41;15267921;19;20029;-59
2022/12/03 07:26:19;;;;;;;35.78;25.83;;;;;;;-1.99;100.00;98872.88;15274625;19;20093;-58
2022/12/03 07:31:56;;;;;;;33.65;24.30;;;;;;;-1.99;100.00;98864.06;15273249;19;20019;-58
2022/12/03 07:37:38;;;;;;;32.28;23.55;;;;;;;-1.99;100.00;98866.72;15272075;19;20045;-58
2022/12/03 07:43:04;;;;;;;34.58;24.35;;;;;;;-1.96;100.00;98871.84;15281941;19;20014;-56
2022/12/03 07:48:28;;;;;;;32.60;24.35;;;;;;;-1.94;100.00;98865.56;15287419;19;20027;-60
2022/12/03 07:53:56;;;;;;;33.08;23.77;;;;;;;-1.92;100.00;98865.50;15282536;19;20125;-58
2022/12/03 07:59:20;;;;;;;35.38;23.77;;;;;;;-1.89;100.00;98865.38;15282022;19;20033;-61
2022/12/03 08:04:51;;;;;;;32.25;22.55;;;;;;;-1.88;100.00;98865.31;15288948;19;20025;-59
2022/12/03 08:10:19;;;;;;;34.47;22.73;;;;;;;-1.86;100.00;98866.09;15283464;19;20081;-58
2022/12/03 08:15:44;;;;;;;32.38;22.92;;;;;;;-1.84;100.00;98870.44;15283090;19;20085;-59
2022/12/03 08:21:13;;;;;;;32.38;23.25;;;;;;;-1.86;100.00;98868.72;15284857;19;20025;-60
2022/12/03 08:26:40;;;;;;;33.85;23.67;;;;;;;-1.89;100.00;98866.22;15289182;19;20011;-61
2022/12/03 08:32:08;;;;;;;36.53;24.83;;;;;;;-1.87;100.00;98867.00;15308717;19;20035;-59
2022/12/03 08:37:32;;;;;;;37.05;25.48;;;;;;;-1.85;100.00;98861.66;15278731;19;20033;-59
2022/12/03 08:43:01;;;;;;;36.15;24.17;;;;;;;-1.81;100.00;98872.91;15272505;19;20099;-58
2022/12/03 08:48:35;;;;;;;36.85;24.52;;;;;;;-1.77;100.00;98882.41;15276329;19;20014;-58
2022/12/03 08:54:13;;;;;;;33.22;23.45;;;;;;;-1.71;100.00;98872.44;15273825;19;20015;-59
2022/12/03 08:59:40;;;;;;;33.78;23.48;;;;;;;-1.63;100.00;98885.28;15276951;19;20025;-57
2022/12/03 09:05:16;;;;;;;36.85;24.30;;;;;;;-1.56;100.00;98891.97;15283773;19;20034;-60
2022/12/03 09:10:42;;;;;;;34.88;24.75;;;;;;;-1.51;100.00;98893.53;15276452;19;20022;-60
2022/12/03 09:16:10;;;;;;;37.20;24.80;;;;;;;-1.47;100.00;98893.31;15275948;19;20022;-61
2022/12/03 09:21:35;;;;;;;34.67;24.80;;;;;;;-1.43;100.00;98883.44;15278539;19;20011;-59
2022/12/03 09:27:00;;;;;;;38.22;24.95;;;;;;;-1.37;100.00;98885.81;15279584;19;20019;-60
2022/12/03 09:32:27;;;;;;;39.22;25.35;;;;;;;-1.36;100.00;98882.25;15279697;19;20692;-57
2022/12/03 09:37:52;;;;;;;37.22;25.25;;;;;;;-1.34;100.00;98871.59;15277423;19;20022;-60
2022/12/03 09:43:16;;;;;;;38.75;26.27;;;;;;;-1.30;100.00;98868.72;15278386;19;20621;-57
2022/12/03 09:48:49;;;;;;;38.53;25.77;;;;;;;-1.28;100.00;98863.34;15256968;19;20025;-58
2022/12/03 09:54:15;;;;;;;38.55;26.38;;;;;;;-1.22;100.00;98868.34;15281531;19;20014;-58
2022/12/03 09:59:40;;;;;;;39.42;26.45;;;;;;;-1.17;100.00;98846.97;15278817;19;20019;-59
2022/12/03 10:05:07;;;;;;;41.35;26.48;;;;;;;-1.13;100.00;98838.78;15278667;19;20010;-58
2022/12/03 10:10:32;;;;;;;38.40;25.70;;;;;;;-1.11;100.00;98829.00;15279547;19;20047;-59
2022/12/03 10:15:56;;;;;;;39.55;26.08;;;;;;;-1.02;100.00;98827.69;15276633;19;20014;-55
2022/12/03 10:21:27;;;;;;;39.58;26.23;;;;;;;-0.98;100.00;98820.44;15280434;19;20024;-57
2022/12/03 10:26:47;;;;;;;38.47;25.95;;;;;;;-0.93;100.00;98819.28;15276749;19;20018;-59
2022/12/03 10:32:14;;;;;;;40.78;25.15;;;;;;;-0.87;100.00;98818.09;15271346;19;20026;-59
2022/12/03 10:37:58;;;;;;;38.70;25.38;;;;;;;-0.85;100.00;98807.44;15277844;19;20019;-57
2022/12/03 10:43:32;;;;;;;37.40;26.10;;;;;;;-0.80;100.00;98808.06;15275426;19;20029;-55
2022/12/03 10:49:11;;;;;;;38.08;25.35;;;;;;;-0.81;100.00;98798.41;15269979;19;20022;-56
2022/12/03 10:54:41;;;;;;;38.47;25.92;;;;;;;-0.76;100.00;98792.88;15276193;19;20014;-57
2022/12/03 11:00:07;;;;;;;36.15;24.73;;;;;;;-0.73;100.00;98790.91;15265568;19;20053;-58
2022/12/03 11:05:36;;;;;;;34.88;23.27;;;;;;;-0.76;100.00;98790.22;15272683;19;20025;-57
2022/12/03 11:11:06;;;;;;;35.47;24.85;;;;;;;-0.72;100.00;98776.75;15271041;19;20114;-58
2022/12/03 11:17:00;;;;;;;36.10;25.15;;;;;;;-0.71;100.00;98767.03;15270141;19;20018;-58
2022/12/03 11:22:40;;;;;;;38.03;26.58;;;;;;;-0.68;100.00;98762.44;15263112;19;20886;-56
2022/12/03 11:28:34;;;;;;;38.90;24.40;;;;;;;-0.62;100.00;98767.38;15271986;19;20019;-53
2022/12/03 11:34:49;;;;;;;37.08;25.27;;;;;;;-0.54;100.00;98758.19;15269094;19;20018;-57
2022/12/03 11:40:37;;;;;;;40.83;26.38;;;;;;;-0.42;100.00;98765.47;15273639;19;20482;-57
2022/12/03 11:46:10;;;;;;;41.55;26.48;;;;;;;-0.44;100.00;98748.81;15272526;19;20029;-57
2022/12/03 11:51:38;;;;;;;42.05;27.08;;;;;;;-0.33;100.00;98754.38;15268522;19;20014;-58
2022/12/03 11:57:04;;;;;;;41.80;26.30;;;;;;;-0.32;100.00;98753.44;15271343;19;20729;-57
2022/12/03 12:02:28;;;;;;;42.17;26.90;;;;;;;-0.30;100.00;98753.34;15264520;19;20057;-57
2022/12/03 12:08:03;;;;;;;39.17;25.67;;;;;;;-0.27;100.00;98741.72;15274857;19;20042;-57
2022/12/03 12:13:53;;;;;;;40.22;25.35;;;;;;;-0.29;100.00;98739.16;15274975;19;20018;-57
2022/12/03 12:19:43;;;;;;;37.15;24.90;;;;;;;-0.27;100.00;98733.78;15267107;19;20029;-55
2022/12/03 12:25:45;;;;;;;43.63;26.27;;;;;;;-0.24;100.00;98715.09;15272176;19;20014;-56
2022/12/03 12:31:10;;;;;;;39.28;25.98;;;;;;;-0.23;100.00;98704.38;15275667;19;20014;-60
2022/12/03 12:36:35;;;;;;;40.90;26.25;;;;;;;-0.17;100.00;98711.13;15286522;19;20021;-56
2022/12/03 12:42:02;;;;;;;39.95;25.52;;;;;;;-0.15;100.00;98711.91;15283956;19;20025;-56
2022/12/03 12:47:27;;;;;;;52.47;24.52;;;;;;;-0.21;100.00;98699.03;15285951;19;20014;-55
2022/12/03 12:52:53;;;;;;;45.67;24.70;;;;;;;-0.21;100.00;98693.72;15278297;19;20022;-58
2022/12/03 12:58:26;;;;;;;40.05;24.90;;;;;;;-0.28;100.00;98677.34;15287100;19;20367;-56
2022/12/03 13:03:58;;;;;;;38.05;25.30;;;;;;;-0.24;100.00;98685.94;15274398;19;20375;-57
2022/12/03 13:09:25;;;;;;;37.50;25.10;;;;;;;-0.29;100.00;98685.38;15228107;19;20361;-57
2022/12/03 13:14:53;;;;;;;37.90;24.17;;;;;;;-0.35;100.00;98684.78;15285190;19;20025;-56
2022/12/03 13:20:22;;;;;;;39.40;25.05;;;;;;;-0.37;100.00;98665.47;15279775;19;20029;-57
2022/12/03 13:25:48;;;;;;;40.78;25.55;;;;;;;-0.48;100.00;98665.22;15280552;19;20022;-56
2022/12/03 13:31:38;;;;;;;40.17;25.25;;;;;;;-0.53;100.00;98676.06;15277663;19;20022;-58
2022/12/03 13:37:03;;;;;;;40.42;25.48;;;;;;;-0.60;100.00;98677.34;15281299;19;20025;-57
2022/12/03 13:42:41;;;;;;;37.63;24.38;;;;;;;-0.59;100.00;98708.16;15277823;19;20074;-57
2022/12/03 13:48:09;;;;;;;40.10;25.75;;;;;;;-0.64;100.00;98703.09;15281599;19;20024;-57
2022/12/03 13:53:37;;;;;;;43.10;26.85;;;;;;;-0.66;100.00;98712.06;15276365;19;20010;-59
2022/12/03 13:59:03;;;;;;;43.83;27.83;;;;;;;-0.71;100.00;98699.09;15273394;19;20040;-56
2022/12/03 14:04:37;;;;;;;46.05;27.15;;;;;;;-0.76;100.00;98698.47;15272364;19;20029;-57
2022/12/03 14:10:02;;;;;;;45.75;26.75;;;;;;;-0.76;100.00;98695.81;15277027;19;20018;-57
2022/12/03 14:15:27;;;;;;;48.25;29.08;;;;;;;-0.81;100.00;98705.81;15283776;19;20024;-58
2022/12/03 14:20:56;;;;;;;54.25;29.70;;;;;;;-0.80;100.00;98704.88;15278127;19;20019;-55
2022/12/03 14:26:20;;;;;;;55.80;29.63;;;;;;;-0.81;100.00;98708.47;15277326;19;20019;-57
2022/12/03 14:31:45;;;;;;;65.25;28.60;;;;;;;-0.83;100.00;98705.03;15270318;19;20645;-56
2022/12/03 14:37:12;;;;;;;60.75;30.30;;;;;;;-0.86;100.00;98695.50;15278119;19;20022;-56
2022/12/03 14:42:37;;;;;;;87.88;31.45;;;;;;;-0.94;100.00;98703.81;15275459;19;20014;-55
2022/12/03 14:48:01;;;;;;;74.97;32.40;;;;;;;-0.99;100.00;98700.56;15276975;19;20018;-57
2022/12/03 14:53:29;;;;;;;75.78;32.03;;;;;;;-1.03;100.00;98709.59;15270621;19;20030;-58
2022/12/03 14:58:54;;;;;;;81.15;33.35;;;;;;;-1.05;100.00;98721.19;15268335;19;20014;-58
2022/12/03 15:04:19;;;;;;;84.78;33.08;;;;;;;-1.11;100.00;98706.50;15268854;19;20022;-57
2022/12/03 15:09:46;;;;;;;73.40;33.65;;;;;;;-1.13;100.00;98713.69;15274963;19;20014;-54
2022/12/03 15:15:12;;;;;;;93.82;33.20;;;;;;;-1.16;100.00;98724.41;15278001;19;20637;-57
2022/12/03 15:20:37;;;;;;;74.80;34.13;;;;;;;-1.18;100.00;98728.91;15270036;19;20627;-58
2022/12/03 15:26:05;;;;;;;114.78;33.45;;;;;;;-1.20;100.00;98720.19;15271899;19;20025;-56
2022/12/03 15:31:30;;;;;;;106.07;34.30;;;;;;;-1.25;100.00;98721.31;15269773;19;20478;-55
2022/12/03 15:36:54;;;;;;;110.25;34.42;;;;;;;-1.24;100.00;98727.44;15274397;19;20037;-57
2022/12/03 15:42:21;;;;;;;152.48;39.78;;;;;;;-1.27;100.00;98728.47;15271583;19;20018;-57
2022/12/03 15:47:46;;;;;;;200.60;36.53;;;;;;;-1.25;100.00;98734.53;15274863;19;20035;-58
2022/12/03 15:53:10;;;;;;;179.63;38.90;;;;;;;-1.27;100.00;98728.47;15270148;19;20019;-57
2022/12/03 15:58:38;;;;;;;193.40;39.28;;;;;;;-1.28;100.00;98732.03;15278406;19;20097;-58
2022/12/03 16:04:02;;;;;;;217.45;40.25;;;;;;;-1.27;100.00;98727.59;15282806;19;20018;-56
2022/12/03 16:09:27;;;;;;;448.08;43.03;;;;;;;-1.29;100.00;98735.63;15307722;19;20084;-56
2022/12/03 16:14:54;;;;;;;335.42;42.88;;;;;;;-1.29;100.00;98729.44;15290507;19;20049;-57
2022/12/03 16:20:19;;;;;;;432.60;44.75;;;;;;;-1.31;100.00;98726.91;15284178;19;20014;-58
2022/12/03 16:25:44;;;;;;;442.92;46.58;;;;;;;-1.31;100.00;98718.97;15285663;19;20025;-56
2022/12/03 16:31:12;;;;;;;314.10;46.15;;;;;;;-1.30;100.00;98717.19;15273913;19;20010;-57
2022/12/03 16:36:37;;;;;;;423.85;47.05;;;;;;;-1.34;100.00;98716.47;15284695;19;20034;-58
2022/12/03 16:42:07;;;;;;;267.65;46.90;;;;;;;-1.31;100.00;98726.91;15279424;19;20017;-57
2022/12/03 16:47:36;;;;;;;582.50;52.58;;;;;;;-1.35;100.00;98730.63;15282714;19;20018;-58
2022/12/03 16:53:01;;;;;;;438.67;51.50;;;;;;;-1.35;100.00;98735.91;15284871;19;20448;-57
2022/12/03 16:58:26;;;;;;;666.92;54.05;;;;;;;-1.35;100.00;98735.06;15281240;19;20553;-58
2022/12/03 17:03:54;;;;;;;473.15;51.80;;;;;;;-1.34;100.00;98728.84;15280714;19;20041;-56
2022/12/03 17:09:18;;;;;;;581.72;54.08;;;;;;;-1.36;100.00;98718.38;15279643;19;20130;-57
2022/12/03 17:14:43;;;;;;;463.30;50.00;;;;;;;-1.36;100.00;98726.31;15279203;19;20082;-56
2022/12/03 17:20:13;;;;;;;638.47;54.08;;;;;;;-1.35;100.00;98735.91;15279394;19;20018;-57
2022/12/03 17:25:38;;;;;;;588.22;52.97;;;;;;;-1.34;100.00;98727.06;15283568;19;20013;-58
2022/12/03 17:31:02;;;;;;;529.70;50.80;;;;;;;-1.32;100.00;98724.34;15279769;19;20018;-59
2022/12/03 17:36:30;;;;;;;608.00;57.90;;;;;;;-1.34;100.00;98719.13;15280665;19;20007;-56
2022/12/03 17:41:55;;;;;;;562.42;56.17;;;;;;;-1.33;100.00;98712.91;15276530;19;20038;-54
2022/12/03 17:47:19;;;;;;;713.55;56.30;;;;;;;-1.32;100.00;98701.41;15278979;19;20018;-58
2022/12/03 17:52:47;;;;;;;541.90;53.03;;;;;;;-1.32;100.00;98698.75;15284023;19;20019;-57
2022/12/03 17:58:11;;;;;;;559.08;53.42;;;;;;;-1.32;100.00;98701.41;15279419;19;20085;-58
2022/12/03 18:03:35;;;;;;;530.22;53.22;;;;;;;-1.30;100.00;98701.34;15276586;19;20025;-56
2022/12/03 18:09:03;;;;;;;744.58;58.90;;;;;;;-1.32;100.00;98701.41;15274109;19;20011;-56
2022/12/03 18:14:28;;;;;;;426.70;55.47;;;;;;;-1.31;100.00;98702.28;15279206;19;20025;-58
2022/12/03 18:19:52;;;;;;;727.80;59.42;;;;;;;-1.30;100.00;98707.47;15272168;19;20676;-58
2022/12/03 18:25:20;;;;;;;783.35;62.38;;;;;;;-1.30;100.00;98704.81;15276873;19;20010;-58
2022/12/03 18:30:45;;;;;;;695.70;63.33;;;;;;;-1.29;100.00;98703.03;15275660;19;20493;-56
2022/12/03 18:36:09;;;;;;;711.63;61.58;;;;;;;-1.29;100.00;98700.38;15275024;19;20401;-57
2022/12/03 18:41:37;;;;;;;521.63;59.78;;;;;;;-1.29;100.00;98701.25;15278527;19;20018;-58
2022/12/03 18:47:01;;;;;;;882.42;63.60;;;;;;;-1.31;100.00;98695.19;15274107;19;20456;-58
2022/12/03 18:52:26;;;;;;;797.08;66.85;;;;;;;-1.30;100.00;98696.06;15275250;19;20041;-57
2022/12/03 18:57:54;;;;;;;832.20;70.05;;;;;;;-1.31;100.00;98694.34;15276336;19;20829;-55
2022/12/03 19:03:18;;;;;;;703.33;67.78;;;;;;;-1.32;100.00;98685.53;15253448;19;20015;-57
2022/12/03 19:08:43;;;;;;;711.10;73.07;;;;;;;-1.34;100.00;98694.50;15276806;19;20017;-57
2022/12/03 19:14:10;;;;;;;757.58;75.45;;;;;;;-1.35;100.00;98693.63;15276997;19;20471;-53
2022/12/03 19:19:35;;;;;;;588.67;69.07;;;;;;;-1.33;100.00;98691.75;15270959;19;20029;-60
2022/12/03 19:25:00;;;;;;;758.88;79.85;;;;;;;-1.32;100.00;98685.53;15274851;19;20010;-57
2022/12/03 19:30:28;;;;;;;690.88;74.78;;;;;;;-1.30;100.00;98685.47;15273322;19;20406;-55
2022/12/03 19:35:52;;;;;;;678.17;74.93;;;;;;;-1.30;100.00;98678.38;15283531;19;20081;-57
2022/12/03 19:41:19;;;;;;;571.08;67.75;;;;;;;-1.26;100.00;98687.88;15287596;19;20050;-58
2022/12/03 19:46:46;;;;;;;498.13;69.35;;;;;;;-1.22;100.00;98685.06;15282009;19;20480;-57
2022/12/03 19:52:12;;;;;;;525.78;71.15;;;;;;;-1.19;100.00;98692.84;15290642;19;20320;-57
2022/12/03 19:57:36;;;;;;;496.50;67.93;;;;;;;-1.15;100.00;98694.38;15288900;19;20029;-59
2022/12/03 20:03:04;;;;;;;481.13;68.30;;;;;;;-1.13;100.00;98684.59;15293647;19;20020;-59
2022/12/03 20:08:29;;;;;;;507.58;67.78;;;;;;;-1.06;100.00;98693.91;15303000;19;20167;-62
2022/12/03 20:13:55;;;;;;;445.27;68.32;;;;;;;-1.04;100.00;98685.88;15302887;19;20027;-61
2022/12/03 20:19:22;;;;;;;451.10;61.42;;;;;;;-1.03;100.00;98695.50;15300072;19;20205;-59
2022/12/03 20:24:47;;;;;;;372.63;60.17;;;;;;;-1.03;100.00;98691.09;15298700;19;20078;-62
2022/12/03 20:30:13;;;;;;;379.60;60.50;;;;;;;-1.01;100.00;98691.88;15298328;19;20015;-60
2022/12/03 20:35:47;;;;;;;429.45;60.95;;;;;;;-0.98;100.00;98690.84;15303404;19;20038;-60
2022/12/03 20:41:13;;;;;;;349.27;61.70;;;;;;;-0.99;100.00;98695.28;15296464;19;20377;-62
2022/12/03 20:46:39;;;;;;;279.80;55.25;;;;;;;-0.97;100.00;98682.81;15300510;19;20094;-60
2022/12/03 20:52:06;;;;;;;362.90;60.33;;;;;;;-0.94;100.00;98687.97;15299026;19;20035;-61
2022/12/03 20:57:31;;;;;;;319.88;56.38;;;;;;;-0.95;100.00;98680.97;15298368;19;20010;-58
2022/12/03 21:02:56;;;;;;;314.50;54.25;;;;;;;-0.94;100.00;98674.72;15293196;19;20082;-61
2022/12/03 21:08:24;;;;;;;249.90;53.20;;;;;;;-0.95;100.00;98678.31;15297247;19;20357;-61
2022/12/03 21:13:59;;;;;;;366.20;55.10;;;;;;;-0.94;100.00;98664.16;15299548;19;20010;-60
2022/12/03 21:19:25;;;;;;;340.95;53.28;;;;;;;-0.92;100.00;98674.63;15296095;19;20019;-61
2022/12/03 21:24:52;;;;;;;302.27;53.10;;;;;;;-0.90;100.00;98679.88;15297650;19;20014;-62
2022/12/03 21:30:18;;;;;;;258.92;52.35;;;;;;;-0.89;100.00;98671.84;15296364;19;20018;-62
2022/12/03 21:35:42;;;;;;;269.27;51.55;;;;;;;-0.89;100.00;98673.66;15296152;19;20025;-58
2022/12/03 21:41:11;;;;;;;232.75;51.47;;;;;;;-0.87;100.00;98667.31;15293527;19;20028;-62
2022/12/03 21:46:35;;;;;;;242.23;49.88;;;;;;;-0.84;100.00;98677.75;15297395;19;20094;-62
2022/12/03 21:52:20;;;;;;;192.43;51.22;;;;;;;-0.78;100.00;98668.63;15292849;19;20520;-61
2022/12/03 21:57:47;;;;;;;193.68;46.97;;;;;;;-0.76;100.00;98679.94;15287622;19;20031;-56
2022/12/03 22:03:19;;;;;;;178.65;47.03;;;;;;;-0.73;100.00;98668.38;15281370;19;20038;-61
2022/12/03 22:08:43;;;;;;;158.18;43.67;;;;;;;-0.75;100.00;98667.59;15293090;19;20018;-58
2022/12/03 22:14:11;;;;;;;143.60;43.08;;;;;;;-0.74;100.00;98666.66;15290665;19;20046;-62
2022/12/03 22:19:38;;;;;;;105.75;40.65;;;;;;;-0.65;100.00;98661.69;15288267;19;20022;-60
2022/12/03 22:25:03;;;;;;;99.45;38.22;;;;;;;-0.60;100.00;98658.81;15290738;19;20018;-61
2022/12/03 22:30:30;;;;;;;106.53;38.95;;;;;;;-0.56;100.00;98667.44;15282896;19;20022;-60
2022/12/03 22:36:03;;;;;;;92.53;38.25;;;;;;;-0.56;100.00;98655.03;15286609;19;20052;-61
2022/12/03 22:41:37;;;;;;;93.32;37.55;;;;;;;-0.57;100.00;98653.34;15281369;19;20097;-61
2022/12/03 22:47:05;;;;;;;158.23;39.05;;;;;;;-0.51;100.00;98644.19;15286268;19;20018;-61
2022/12/03 22:52:29;;;;;;;141.43;36.88;;;;;;;-0.49;100.00;98650.25;15285575;19;20473;-56
2022/12/03 22:57:54;;;;;;;200.50;37.80;;;;;;;-0.54;100.00;98637.28;15288586;19;20019;-61
2022/12/03 23:03:30;;;;;;;160.80;37.97;;;;;;;-0.55;100.00;98634.75;15278030;19;20018;-60
2022/12/03 23:08:55;;;;;;;168.23;38.40;;;;;;;-0.58;100.00;98619.88;15286860;19;20082;-60
2022/12/03 23:14:19;;;;;;;210.88;40.45;;;;;;;-0.60;100.00;98607.69;15291232;19;20022;-57
2022/12/03 23:19:46;;;;;;;189.52;40.55;;;;;;;-0.59;100.00;98617.31;15286286;19;20360;-60
2022/12/03 23:25:11;;;;;;;190.35;40.00;;;;;;;-0.60;100.00;98608.53;15288745;19;20022;-61
2022/12/03 23:30:37;;;;;;;150.65;41.10;;;;;;;-0.58;100.00;98611.09;15287254;19;20046;-58
2022/12/03 23:36:05;;;;;;;258.08;40.90;;;;;;;-0.58;100.00;98597.88;15288820;19;20018;-57
2022/12/03 23:41:29;;;;;;;293.45;42.03;;;;;;;-0.59;100.00;98602.31;15289187;19;20045;-59
2022/12/03 23:46:54;;;;;;;200.55;41.85;;;;;;;-0.56;100.00;98601.28;15276899;19;20018;-59
2022/12/03 23:52:21;;;;;;;244.68;42.28;;;;;;;-0.55;100.00;98598.53;15282978;19;20812;-60
2022/12/03 23:57:46;;;;;;;273.55;42.90;;;;;;;-0.53;100.00;98601.13;15290651;19;20014;-58
